Time;durP1;ratioP1;P1;durP2;ratioP2;P2;SDS_P1;SDS_P2;PMS_P1;PMS_P2;Temp;Humidity;BMP_temperature;BMP_pressure;BME280_temperature;BME280_humidity;BME280_pressure;Samples;Min_cycle;Max_cycle;Signal;HPM_P1;HPM_P2
2024/04/11 00:02:18;;;;;;;12.18;6.60;;;;;;;12.88;100.00;101013.41;5434003;26;20021;-76
2024/04/11 00:04:43;;;;;;;8.30;6.28;;;;;;;12.32;100.00;100970.34;5434684;26;20007;-78
2024/04/11 00:07:08;;;;;;;9.38;6.65;;;;;;;11.35;100.00;100867.59;5435974;26;20434;-75
2024/04/11 00:09:34;;;;;;;10.18;6.03;;;;;;;12.49;100.00;100973.41;5431365;26;20018;-75
2024/04/11 00:11:59;;;;;;;9.70;5.93;;;;;;;12.11;100.00;100938.44;5431137;26;20008;-75
2024/04/11 00:14:25;;;;;;;9.02;5.50;;;;;;;12.02;100.00;100834.13;5428058;26;20003;-74
2024/04/11 00:16:52;;;;;;;8.25;5.72;;;;;;;11.72;100.00;100833.03;5433071;26;20850;-74
2024/04/11 00:19:17;;;;;;;8.80;5.72;;;;;;;12.06;100.00;100892.63;5437184;26;20010;-77
2024/04/11 00:21:42;;;;;;;9.18;5.63;;;;;;;12.16;100.00;100871.19;5432552;26;20358;-73
2024/04/11 00:24:08;;;;;;;8.77;5.93;;;;;;;12.18;100.00;100864.38;5428830;26;20334;-74
2024/04/11 00:26:34;;;;;;;9.52;6.00;;;;;;;11.94;100.00;100864.03;5432773;26;20654;-74
2024/04/11 00:28:59;;;;;;;11.70;6.50;;;;;;;11.46;100.00;100755.38;5438214;26;20415;-74
2024/04/11 00:31:25;;;;;;;9.20;6.50;;;;;;;11.06;100.00;100729.81;5428165;26;20018;-74
2024/04/11 00:34:12;;;;;;;9.18;6.63;;;;;;;11.39;100.00;100713.91;5434736;26;20009;-74
2024/04/11 00:36:41;;;;;;;12.63;7.15;;;;;;;10.85;100.00;100687.81;5435812;26;20087;-76
2024/04/11 00:39:09;;;;;;;11.65;7.22;;;;;;;10.90;100.00;100660.59;5427438;26;20456;-74
2024/04/11 00:41:36;;;;;;;10.07;8.02;;;;;;;11.88;100.00;100726.56;5438487;26;20010;-75
2024/04/11 00:44:02;;;;;;;10.45;7.47;;;;;;;11.30;100.00;100763.31;5435801;26;19999;-76
2024/04/11 00:46:29;;;;;;;11.23;7.18;;;;;;;11.37;100.00;100719.94;5430446;26;20000;-79
2024/04/11 00:48:56;;;;;;;8.20;7.07;;;;;;;11.38;100.00;100716.50;5425488;26;20054;-75
2024/04/11 00:51:22;;;;;;;10.40;7.28;;;;;;;11.33;100.00;100716.59;5425775;26;20017;-76
2024/04/11 00:53:56;;;;;;;10.90;6.80;;;;;;;11.31;100.00;100697.97;5426940;26;20004;-77
2024/04/11 00:56:23;;;;;;;9.52;6.63;;;;;;;10.66;100.00;100643.22;5426442;26;20319;-76
2024/04/11 00:58:48;;;;;;;10.57;6.65;;;;;;;10.46;100.00;100638.47;5421782;26;20011;-75
2024/04/11 01:01:14;;;;;;;8.63;6.68;;;;;;;11.23;100.00;100704.94;5426887;26;20004;-74
2024/04/11 01:03:40;;;;;;;9.02;6.32;;;;;;;10.81;100.00;100574.28;5422267;26;20003;-76
2024/04/11 01:06:06;;;;;;;9.77;6.60;;;;;;;11.00;100.00;100691.78;5425256;26;19999;-74
2024/04/11 01:08:31;;;;;;;7.95;6.82;;;;;;;11.05;100.00;100705.25;5432777;26;20341;-74
2024/04/11 01:10:56;;;;;;;7.82;6.57;;;;;;;10.93;100.00;100708.88;5428097;26;20016;-75
2024/04/11 01:13:22;;;;;;;11.00;7.13;;;;;;;10.59;100.00;100592.50;5431239;26;20036;-74
2024/04/11 01:15:48;;;;;;;9.07;6.90;;;;;;;10.40;100.00;100582.66;5431867;26;20011;-75
2024/04/11 01:18:13;;;;;;;10.32;7.57;;;;;;;10.31;100.00;100524.38;5430393;26;20003;-75
2024/04/11 01:20:39;;;;;;;10.55;8.75;;;;;;;10.23;100.00;100554.16;5433836;26;20383;-74
2024/04/11 01:23:07;;;;;;;9.60;7.85;;;;;;;10.52;100.00;100518.03;5435241;26;20344;-74
2024/04/11 01:25:34;;;;;;;13.63;8.18;;;;;;;10.57;100.00;100627.28;5432356;26;20010;-74
2024/04/11 01:28:04;;;;;;;9.07;7.72;;;;;;;10.87;100.00;100578.41;5429736;26;20009;-74
2024/04/11 01:30:29;;;;;;;10.77;8.00;;;;;;;10.49;100.00;100574.03;5426163;26;20003;-74
2024/04/11 01:33:00;;;;;;;10.25;8.00;;;;;;;10.70;100.00;100567.69;5427917;26;20006;-75
2024/04/11 01:35:30;;;;;;;9.40;7.95;;;;;;;10.25;100.00;100556.69;5436572;26;20000;-75
2024/04/11 01:38:00;;;;;;;13.47;8.63;;;;;;;10.21;100.00;100539.81;5433615;26;20004;-74
2024/04/11 01:40:29;;;;;;;9.43;7.75;;;;;;;10.48;100.00;100508.81;5426598;26;20391;-75
2024/04/11 01:42:55;;;;;;;12.07;8.98;;;;;;;9.56;100.00;100422.41;5430793;26;20036;-74
2024/04/11 01:45:20;;;;;;;14.73;9.65;;;;;;;9.94;100.00;100420.88;5433466;26;20006;-76
2024/04/11 01:47:48;;;;;;;11.43;8.73;;;;;;;10.47;100.00;100479.19;5423950;26;20340;-75
2024/04/11 01:50:13;;;;;;;16.17;9.35;;;;;;;9.69;100.00;100397.63;5437138;26;19995;-76
2024/04/11 01:52:39;;;;;;;19.98;9.88;;;;;;;10.00;100.00;100320.00;5433111;26;20014;-75
2024/04/11 01:55:04;;;;;;;18.05;11.63;;;;;;;10.63;100.00;100442.41;5435458;26;20423;-75
2024/04/11 01:57:29;;;;;;;13.20;10.25;;;;;;;9.78;100.00;100381.41;5438786;26;19996;-75
2024/04/11 01:59:56;;;;;;;13.68;9.27;;;;;;;10.23;100.00;100423.75;5433960;26;19999;-75
2024/04/11 02:02:22;;;;;;;12.77;9.18;;;;;;;9.84;100.00;100447.31;5434497;26;19995;-76
2024/04/11 02:04:48;;;;;;;12.45;8.45;;;;;;;10.52;100.00;100324.84;5426763;26;20450;-75
2024/04/11 02:07:14;;;;;;;11.68;8.32;;;;;;;9.95;100.00;100280.34;5430603;26;20010;-74
2024/04/11 02:09:40;;;;;;;10.80;9.02;;;;;;;10.40;100.00;100370.88;5437774;26;19994;-74
2024/04/11 02:12:06;;;;;;;13.80;8.45;;;;;;;10.29;100.00;100348.25;5429520;26;19998;-74
2024/04/11 02:14:31;;;;;;;11.40;8.55;;;;;;;10.52;100.00;100326.59;5435548;26;20594;-74
2024/04/11 02:16:57;;;;;;;13.57;8.85;;;;;;;10.16;100.00;100326.47;5430158;26;19996;-73
2024/04/11 02:19:23;;;;;;;14.23;9.07;;;;;;;9.96;100.00;100341.28;5428765;26;19999;-76
2024/04/11 02:21:48;;;;;;;10.98;8.57;;;;;;;9.75;100.00;100189.34;5437061;26;19999;-73
2024/04/11 02:24:16;;;;;;;15.57;9.30;;;;;;;9.60;100.00;100177.84;5430190;26;20404;-74
2024/04/11 02:26:47;;;;;;;13.40;9.15;;;;;;;9.79;100.00;100244.25;5424104;26;20089;-74
2024/04/11 02:29:14;;;;;;;14.65;8.65;;;;;;;9.05;100.00;100022.53;5420106;26;20010;-74
2024/04/11 02:31:42;;;;;;;10.57;9.15;;;;;;;10.25;100.00;100175.56;5435361;26;19999;-75
2024/04/11 02:34:08;;;;;;;12.40;9.18;;;;;;;10.01;100.00;100187.09;5439191;26;20042;-73
2024/04/11 02:36:34;;;;;;;11.60;8.77;;;;;;;10.23;100.00;100142.56;5434416;26;20031;-73
2024/04/11 02:39:02;;;;;;;13.25;9.30;;;;;;;9.70;100.00;100063.41;5420018;26;20015;-77
2024/04/11 02:41:28;;;;;;;16.45;9.65;;;;;;;9.73;100.00;100055.69;5435424;26;20011;-74
2024/04/11 02:43:55;;;;;;;13.27;9.90;;;;;;;10.29;100.00;100141.56;5434834;26;20003;-74
2024/04/11 02:46:21;;;;;;;19.77;11.82;;;;;;;9.42;100.00;100061.50;5422341;26;20030;-75
2024/04/11 02:48:47;;;;;;;19.80;12.02;;;;;;;8.97;100.00;99999.09;5428620;26;20003;-74
2024/04/11 02:51:13;;;;;;;20.88;14.13;;;;;;;9.75;100.00;100128.41;5442386;26;20071;-76
2024/04/11 02:53:39;;;;;;;18.55;13.80;;;;;;;10.11;100.00;100086.97;5424675;26;20027;-72
2024/04/11 02:56:08;;;;;;;15.98;12.98;;;;;;;9.01;100.00;99934.75;5427376;26;20004;-70
2024/04/11 02:58:34;;;;;;;15.75;11.48;;;;;;;10.16;100.00;100077.53;5428303;26;20015;-71
2024/04/11 03:01:00;;;;;;;14.90;11.73;;;;;;;10.35;100.00;100053.34;5430525;26;19999;-70
2024/04/11 03:03:26;;;;;;;27.70;15.45;;;;;;;10.41;100.00;100062.50;5427433;26;20014;-72
2024/04/11 03:05:54;;;;;;;30.13;13.98;;;;;;;9.79;100.00;100130.03;5421163;26;20019;-72
2024/04/11 03:08:20;;;;;;;30.00;16.58;;;;;;;9.64;100.00;99978.09;5419421;26;20012;-72
2024/04/11 03:10:45;;;;;;;20.92;14.18;;;;;;;10.64;100.00;100014.41;5418701;26;20047;-72
2024/04/11 03:13:11;;;;;;;19.70;12.27;;;;;;;10.64;100.00;99975.44;5417708;26;20015;-70
2024/04/11 03:15:37;;;;;;;17.30;11.27;;;;;;;10.70;100.00;100051.53;5419271;26;20446;-71
2024/04/11 03:18:02;;;;;;;21.48;12.50;;;;;;;10.10;100.00;100059.88;5421057;26;20018;-72
2024/04/11 03:20:29;;;;;;;17.27;11.68;;;;;;;10.64;100.00;100066.97;5415940;26;20030;-71
2024/04/11 03:22:54;;;;;;;18.08;11.35;;;;;;;10.35;100.00;100045.72;5423270;26;20003;-70
2024/04/11 03:25:20;;;;;;;15.75;10.18;;;;;;;10.61;100.00;100079.78;5422290;26;20618;-70
2024/04/11 03:27:46;;;;;;;18.33;10.15;;;;;;;10.00;100.00;100010.16;5411147;26;20073;-72
2024/04/11 03:30:11;;;;;;;13.52;9.18;;;;;;;10.24;100.00;99988.44;5418218;26;20049;-75
2024/04/11 03:32:38;;;;;;;18.45;9.02;;;;;;;10.94;100.00;100083.94;5426030;26;19999;-74
2024/04/11 03:35:04;;;;;;;17.38;11.38;;;;;;;9.57;100.00;99999.38;5415974;26;20007;-74
2024/04/11 03:37:29;;;;;;;18.60;11.18;;;;;;;10.63;100.00;100114.44;5414668;26;20345;-73
2024/04/11 03:39:57;;;;;;;15.90;10.25;;;;;;;10.68;100.00;100119.41;5420033;26;20004;-70
2024/04/11 03:42:23;;;;;;;16.58;10.43;;;;;;;9.44;100.00;100160.41;5421690;26;20014;-72
2024/04/11 03:44:49;;;;;;;14.13;10.52;;;;;;;9.58;100.00;100178.72;5422983;26;19995;-72
2024/04/11 03:47:14;;;;;;;14.52;10.43;;;;;;;9.63;100.00;100187.06;5421225;26;19994;-70
2024/04/11 03:49:40;;;;;;;14.68;9.95;;;;;;;9.77;100.00;100124.13;5415083;26;19996;-70
2024/04/11 03:52:06;;;;;;;14.73;10.10;;;;;;;10.08;100.00;100121.75;5420228;26;20003;-71
2024/04/11 03:54:32;;;;;;;15.60;10.77;;;;;;;9.54;100.00;100060.38;5424119;26;20375;-71
2024/04/11 03:56:58;;;;;;;14.75;11.63;;;;;;;9.08;100.00;100070.66;5422783;26;19996;-70
2024/04/11 03:59:25;;;;;;;17.40;11.70;;;;;;;9.97;100.00;100111.84;5417796;26;20025;-72
2024/04/11 04:01:51;;;;;;;16.00;12.65;;;;;;;10.01;100.00;100105.81;5420286;26;20010;-70
2024/04/11 04:04:19;;;;;;;19.48;13.50;;;;;;;10.06;100.00;100085.38;5417765;26;20007;-72
2024/04/11 04:06:46;;;;;;;20.92;13.75;;;;;;;10.38;100.00;100149.81;5412293;26;19999;-74
2024/04/11 04:09:11;;;;;;;21.08;13.23;;;;;;;10.03;100.00;100177.72;5383916;26;20008;-70
2024/04/11 04:11:37;;;;;;;23.98;14.52;;;;;;;10.38;100.00;100141.34;5414548;26;20014;-70
2024/04/11 04:14:03;;;;;;;20.98;14.00;;;;;;;10.27;100.00;100166.19;5424772;26;20014;-71
2024/04/11 04:16:28;;;;;;;17.88;13.32;;;;;;;9.97;100.00;100114.38;5421892;26;19999;-70
2024/04/11 04:18:54;;;;;;;18.13;11.23;;;;;;;9.53;100.00;100152.59;5423633;26;20006;-73
2024/04/11 04:21:20;;;;;;;17.08;10.43;;;;;;;9.95;100.00;100260.84;5426564;26;20013;-74
2024/04/11 04:23:48;;;;;;;16.70;10.10;;;;;;;9.33;100.00;100198.66;5427206;26;20004;-73
2024/04/11 04:26:19;;;;;;;14.77;9.50;;;;;;;9.10;100.00;100200.81;5421779;26;20449;-71
2024/04/11 04:28:45;;;;;;;12.57;9.68;;;;;;;9.19;100.00;100170.19;5421005;26;20014;-69
2024/04/11 04:31:20;;;;;;;18.55;9.27;;;;;;;9.97;100.00;100266.75;5420162;26;20012;-71
2024/04/11 04:33:50;;;;;;;16.63;9.10;;;;;;;10.18;100.00;100265.50;5415753;26;20014;-73
2024/04/11 04:36:22;;;;;;;15.00;9.40;;;;;;;9.61;100.00;100204.88;5421353;26;20004;-72
2024/04/11 04:38:51;;;;;;;14.68;9.95;;;;;;;10.04;100.00;100262.38;5422866;26;20000;-71
2024/04/11 04:41:18;;;;;;;20.08;11.35;;;;;;;10.45;100.00;100273.34;5420075;26;20007;-74
2024/04/11 04:43:45;;;;;;;17.23;11.32;;;;;;;9.88;100.00;100279.66;5424788;26;20022;-73
2024/04/11 04:46:15;;;;;;;18.17;11.30;;;;;;;9.75;100.00;100328.97;5417315;26;20011;-72
2024/04/11 04:48:41;;;;;;;15.82;9.35;;;;;;;9.69;100.00;100212.31;5434734;26;21088;-71
2024/04/11 04:51:07;;;;;;;13.20;8.65;;;;;;;9.29;100.00;100196.25;5426668;26;19999;-70
2024/04/11 04:53:34;;;;;;;25.30;22.60;;;;;;;9.42;100.00;100210.34;5439812;26;20135;-72
2024/04/11 04:55:59;;;;;;;44.05;39.67;;;;;;;9.73;100.00;100333.25;5439034;26;20003;-72
2024/04/11 04:58:26;;;;;;;28.85;25.52;;;;;;;9.73;100.00;100290.09;5429943;26;20319;-72
2024/04/11 05:00:52;;;;;;;12.20;9.63;;;;;;;9.61;100.00;100308.94;5430260;26;20022;-72
2024/04/11 05:03:18;;;;;;;10.00;7.78;;;;;;;10.57;100.00;100223.06;5427364;26;20072;-71
2024/04/11 05:05:44;;;;;;;17.77;8.98;;;;;;;10.26;100.00;100236.50;5431125;26;20007;-71
2024/04/11 05:08:13;;;;;;;16.02;8.93;;;;;;;9.75;100.00;100085.25;5423562;26;20003;-72
2024/04/11 05:10:42;;;;;;;11.13;7.63;;;;;;;10.79;100.00;100277.63;5430100;26;20018;-73
2024/04/11 05:13:09;;;;;;;18.60;8.57;;;;;;;10.63;100.00;100170.38;5439734;26;20434;-70
2024/04/11 05:15:39;;;;;;;17.80;8.80;;;;;;;11.70;100.00;100299.03;5424465;26;20336;-71
2024/04/11 05:18:05;;;;;;;17.58;9.65;;;;;;;11.77;100.00;100209.66;5428180;26;20027;-71
2024/04/11 05:20:33;;;;;;;23.98;9.57;;;;;;;12.70;100.00;100355.56;5436736;26;20080;-73
2024/04/11 05:22:59;;;;;;;24.30;8.68;;;;;;;12.70;100.00;100356.41;5429098;26;20040;-73
2024/04/11 05:25:25;;;;;;;27.65;8.80;;;;;;;13.01;100.00;100366.50;5436668;26;20013;-75
2024/04/11 05:27:53;;;;;;;31.90;8.32;;;;;;;13.35;100.00;100468.44;5424168;26;20426;-71
2024/04/11 05:30:19;;;;;;;36.03;8.70;;;;;;;13.68;100.00;100441.78;5429455;26;20027;-71
2024/04/11 05:32:46;;;;;;;19.95;7.78;;;;;;;14.53;100.00;100575.28;5431778;26;20031;-71
2024/04/11 05:35:12;;;;;;;25.90;8.88;;;;;;;14.49;100.00;100632.56;5429192;26;19999;-71
2024/04/11 05:37:39;;;;;;;30.27;9.30;;;;;;;14.42;100.00;100626.00;5426917;26;20017;-72
2024/04/11 05:40:06;;;;;;;22.27;8.48;;;;;;;15.15;100.00;100758.28;5432645;26;20015;-75
2024/04/11 05:42:33;;;;;;;18.48;7.97;;;;;;;15.08;100.00;100730.38;5422046;26;20003;-73
2024/04/11 05:45:00;;;;;;;17.85;9.02;;;;;;;14.96;100.00;100700.91;5432238;26;20449;-73
2024/04/11 05:47:25;;;;;;;17.23;9.20;;;;;;;16.34;100.00;100912.22;5429218;26;20111;-72
2024/04/11 05:49:51;;;;;;;14.25;9.25;;;;;;;16.02;100.00;100872.31;5426110;26;20003;-72
2024/04/11 05:52:17;;;;;;;19.75;12.25;;;;;;;16.92;100.00;101016.19;5435994;26;20345;-71
2024/04/11 05:54:43;;;;;;;17.08;9.45;;;;;;;16.99;100.00;101080.16;5428496;26;20018;-71
2024/04/11 05:57:08;;;;;;;16.65;8.57;;;;;;;17.11;100.00;101110.53;5422313;26;20004;-71
2024/04/11 05:59:36;;;;;;;18.85;9.18;;;;;;;17.50;100.00;101103.09;5430723;26;20004;-72
2024/04/11 06:02:03;;;;;;;18.85;8.10;;;;;;;17.45;100.00;101173.59;5422699;26;20011;-73
2024/04/11 06:04:29;;;;;;;18.95;7.90;;;;;;;17.78;100.00;101159.47;5427132;26;20009;-71
2024/04/11 06:06:55;;;;;;;17.67;8.05;;;;;;;18.49;100.00;101169.50;5420258;26;20014;-72
2024/04/11 06:09:20;;;;;;;15.02;8.80;;;;;;;18.47;100.00;101207.34;5426571;26;20035;-76
2024/04/11 06:11:46;;;;;;;14.48;8.63;;;;;;;17.17;100.00;101135.19;5422884;26;20361;-72
2024/04/11 06:14:12;;;;;;;14.95;8.68;;;;;;;17.56;100.00;101061.72;5425470;26;19999;-71
2024/04/11 06:16:39;;;;;;;10.80;8.50;;;;;;;17.68;100.00;101106.69;5423319;26;20017;-74
2024/04/11 06:19:06;;;;;;;11.75;8.30;;;;;;;17.00;100.00;101106.69;5423441;26;20018;-71
2024/04/11 06:21:36;;;;;;;13.75;9.05;;;;;;;17.76;100.00;101024.91;5429619;26;20002;-71
2024/04/11 06:24:02;;;;;;;15.43;8.70;;;;;;;17.69;100.00;101078.34;5429877;26;20011;-72
2024/04/11 06:26:27;;;;;;;13.32;8.57;;;;;;;17.47;100.00;101058.66;5429673;26;20534;-72
2024/04/11 06:28:53;;;;;;;11.20;8.02;;;;;;;18.19;100.00;101099.47;5429606;26;20015;-71
2024/04/11 06:31:24;;;;;;;11.57;7.22;;;;;;;18.49;100.00;101069.03;5429233;26;20022;-71
2024/04/11 06:33:54;;;;;;;12.50;7.18;;;;;;;19.27;100.00;101157.50;5428903;26;20018;-72
2024/04/11 06:36:20;;;;;;;8.95;6.65;;;;;;;18.95;100.00;101126.25;5420375;26;20003;-73
2024/04/11 06:38:46;;;;;;;11.35;7.13;;;;;;;19.07;100.00;101204.81;5426068;26;20035;-73
2024/04/11 06:41:18;;;;;;;18.75;8.15;;;;;;;19.84;100.00;101232.31;5433197;26;20104;-73
2024/04/11 06:43:46;;;;;;;14.23;7.50;;;;;;;19.86;100.00;101254.56;5424630;26;20011;-71
2024/04/11 06:46:13;;;;;;;13.98;7.50;;;;;;;20.24;100.00;101282.97;5429283;26;20007;-72
2024/04/11 06:48:41;;;;;;;18.02;8.95;;;;;;;20.45;100.00;101293.13;5425833;26;20034;-74
2024/04/11 06:51:09;;;;;;;24.40;11.55;;;;;;;21.20;100.00;101321.34;5433344;26;20007;-73
2024/04/11 06:53:36;;;;;;;23.60;12.02;;;;;;;20.99;100.00;101281.00;5431538;26;20012;-72
2024/04/11 06:56:07;;;;;;;16.67;10.23;;;;;;;20.92;100.00;101352.06;5422136;26;20014;-71
2024/04/11 06:58:34;;;;;;;16.55;10.50;;;;;;;21.46;100.00;101383.00;5425614;26;20002;-72
2024/04/11 07:01:01;;;;;;;20.48;9.55;;;;;;;21.96;100.00;101318.25;5431367;26;20021;-71
2024/04/11 07:03:27;;;;;;;13.23;8.90;;;;;;;22.31;100.00;101317.19;5432610;26;20018;-72
2024/04/11 07:05:56;;;;;;;15.25;9.07;;;;;;;22.99;100.00;101385.97;5429652;26;20006;-71
2024/04/11 07:08:30;;;;;;;14.50;8.20;;;;;;;22.89;100.00;101380.47;5433235;26;20449;-72
2024/04/11 07:11:40;;;;;;;10.93;6.60;;;;;;;23.45;100.00;101356.47;5433320;26;20011;-72
2024/04/11 07:13:59;;;;;;;11.02;6.70;;;;;;;23.58;100.00;101404.16;5429351;26;20031;-73
2024/04/11 07:16:29;;;;;;;13.75;6.57;;;;;;;23.43;100.00;101349.69;5429098;26;20539;-72
2024/04/11 07:18:55;;;;;;;10.30;6.32;;;;;;;23.49;100.00;101402.13;5427404;26;20007;-73
2024/04/11 07:21:25;;;;;;;10.40;7.65;;;;;;;23.23;100.00;101320.50;5429749;26;20053;-72
2024/04/11 07:23:54;;;;;;;11.63;6.57;;;;;;;23.03;100.00;101325.19;5424695;26;20003;-72
2024/04/11 07:26:30;;;;;;;13.50;6.22;;;;;;;23.56;100.00;101395.63;5424678;26;20018;-71
2024/04/11 07:29:01;;;;;;;10.27;5.47;;;;;;;24.28;100.00;101359.16;5426000;26;20430;-72
2024/04/11 07:31:28;;;;;;;7.95;5.97;;;;;;;23.45;100.00;101299.34;5428105;26;20349;-71
2024/04/11 07:33:55;;;;;;;9.30;5.05;;;;;;;24.12;100.00;101358.44;5436500;26;20003;-72
2024/04/11 07:36:22;;;;;;;6.82;4.70;;;;;;;22.57;100.00;101419.44;5426083;26;20027;-73
2024/04/11 07:38:49;;;;;;;6.97;4.32;;;;;;;24.57;100.00;101303.53;5429863;26;20014;-71
2024/04/11 07:41:17;;;;;;;9.60;4.70;;;;;;;24.92;100.00;101277.81;5431100;26;20434;-72
2024/04/11 07:43:47;;;;;;;7.30;4.50;;;;;;;24.88;100.00;101305.81;5427595;26;20434;-71
2024/04/11 07:46:16;;;;;;;11.65;4.82;;;;;;;24.64;100.00;101290.97;5422143;26;20326;-71
2024/04/11 07:48:51;;;;;;;8.55;5.32;;;;;;;24.39;100.00;101259.66;5418415;26;19999;-71
2024/04/11 07:51:18;;;;;;;9.05;5.38;;;;;;;25.01;100.00;101316.25;5421347;26;19999;-71
2024/04/11 07:53:46;;;;;;;5.68;4.75;;;;;;;24.51;100.00;101222.44;5431093;26;20497;-72
2024/04/11 07:56:19;;;;;;;6.28;4.40;;;;;;;25.32;100.00;101239.50;5432629;26;19999;-71
2024/04/11 07:58:46;;;;;;;7.78;4.50;;;;;;;26.02;100.00;101224.97;5426121;26;20031;-74
2024/04/11 08:01:11;;;;;;;5.43;4.30;;;;;;;24.91;100.00;101206.72;5423164;26;20010;-71
2024/04/11 08:03:37;;;;;;;8.82;4.10;;;;;;;24.91;100.00;101269.19;5432172;26;20027;-71
2024/04/11 08:06:03;;;;;;;8.07;4.20;;;;;;;24.76;100.00;101204.31;5425730;26;20072;-72
2024/04/11 08:08:29;;;;;;;5.18;4.10;;;;;;;25.09;100.00;101271.47;5427228;26;20645;-72
2024/04/11 08:11:02;;;;;;;5.10;3.97;;;;;;;24.55;100.00;101203.94;5432277;26;19999;-71
2024/04/11 08:13:29;;;;;;;6.00;4.10;;;;;;;24.84;100.00;101267.91;5423182;26;20711;-72
2024/04/11 08:15:54;;;;;;;7.05;4.28;;;;;;;25.10;100.00;101190.66;5434639;26;20013;-72
2024/04/11 08:18:21;;;;;;;7.50;4.28;;;;;;;25.93;100.00;101267.34;5424818;26;20326;-73
2024/04/11 08:20:46;;;;;;;7.80;4.85;;;;;;;25.44;100.00;101291.63;5430385;26;20014;-78
2024/04/11 08:23:12;;;;;;;9.43;5.10;;;;;;;25.16;100.00;101306.56;5425250;26;20341;-73
2024/04/11 08:25:37;;;;;;;6.43;3.78;;;;;;;24.98;100.00;101232.34;5441108;26;20011;-72
2024/04/11 08:28:03;;;;;;;7.63;4.35;;;;;;;26.40;100.00;101156.03;5442837;26;20029;-72
2024/04/11 08:30:29;;;;;;;11.75;4.30;;;;;;;26.44;100.00;101149.63;5424831;26;20018;-72
2024/04/11 08:32:55;;;;;;;7.63;4.45;;;;;;;25.92;100.00;101284.75;5425297;26;20014;-72
2024/04/11 08:35:21;;;;;;;6.18;4.50;;;;;;;24.39;100.00;101276.09;5434346;26;20010;-76
2024/04/11 08:37:51;;;;;;;8.23;4.25;;;;;;;25.27;100.00;101260.66;5434376;26;20456;-72
2024/04/11 08:40:17;;;;;;;8.13;4.00;;;;;;;25.92;100.00;101292.59;5427562;26;20049;-72
2024/04/11 08:42:43;;;;;;;6.55;3.75;;;;;;;25.75;100.00;101233.00;5434512;26;20006;-72
2024/04/11 08:45:09;;;;;;;7.63;4.68;;;;;;;25.67;100.00;101139.69;5428219;26;20003;-72
2024/04/11 08:47:35;;;;;;;6.45;4.47;;;;;;;26.67;100.00;101209.69;5422530;26;20018;-73
2024/04/11 08:50:01;;;;;;;6.68;3.90;;;;;;;25.67;100.00;101217.88;5430231;26;20049;-73
2024/04/11 08:52:31;;;;;;;6.03;3.83;;;;;;;26.81;100.00;101163.38;5430971;26;20035;-73
2024/04/11 08:54:57;;;;;;;7.40;4.32;;;;;;;27.67;100.00;101239.38;5435975;26;20018;-73
2024/04/11 08:57:22;;;;;;;7.85;4.70;;;;;;;26.56;100.00;101281.78;5427072;26;20014;-73
2024/04/11 08:59:49;;;;;;;7.15;4.00;;;;;;;26.78;100.00;101187.09;5431218;26;20023;-72
2024/04/11 09:02:15;;;;;;;7.95;4.20;;;;;;;25.51;100.00;101355.38;5426673;26;20018;-73
2024/04/11 09:04:41;;;;;;;10.57;4.32;;;;;;;25.92;100.00;101323.03;5432803;26;20340;-78
2024/04/11 09:07:20;;;;;;;8.30;5.25;;;;;;;25.63;100.00;101273.75;5441751;26;20010;-73
2024/04/11 09:09:47;;;;;;;5.85;4.18;;;;;;;25.96;100.00;101325.31;5418422;26;20010;-73
2024/04/11 09:12:16;;;;;;;7.07;4.30;;;;;;;25.90;100.00;101311.88;5424411;26;20031;-73
2024/04/11 09:14:44;;;;;;;6.80;4.82;;;;;;;27.18;100.00;101250.16;5434560;26;20023;-73
2024/04/11 09:17:13;;;;;;;7.28;4.45;;;;;;;26.09;100.00;101333.13;5433419;26;19999;-77
2024/04/11 09:19:41;;;;;;;8.48;4.20;;;;;;;26.68;100.00;101308.81;5430867;26;20003;-77
2024/04/11 09:22:13;;;;;;;5.68;4.22;;;;;;;25.97;100.00;101253.97;5429728;26;20015;-69
2024/04/11 09:24:48;;;;;;;6.60;4.15;;;;;;;26.52;100.00;101277.75;5422260;26;20071;-69
2024/04/11 09:27:17;;;;;;;6.78;4.75;;;;;;;26.07;100.00;101335.84;5428933;26;20003;-70
2024/04/11 09:29:46;;;;;;;8.27;4.30;;;;;;;26.79;100.00;101301.03;5429285;26;20002;-70
2024/04/11 09:32:13;;;;;;;9.25;4.30;;;;;;;26.73;100.00;101314.53;5426515;26;20329;-70
2024/04/11 09:34:42;;;;;;;6.18;4.20;;;;;;;25.90;100.00;101285.81;5422324;26;20019;-68
2024/04/11 09:37:14;;;;;;;5.80;4.60;;;;;;;26.82;100.00;101315.63;5431302;26;19999;-70
2024/04/11 09:39:45;;;;;;;12.73;4.40;;;;;;;26.41;100.00;101329.91;5429886;26;20414;-70
2024/04/11 09:42:25;;;;;;;9.20;4.38;;;;;;;26.07;100.00;101329.81;5432066;26;20863;-69
2024/04/11 09:44:55;;;;;;;7.63;4.13;;;;;;;26.36;100.00;101248.53;5420392;26;20050;-69
2024/04/11 09:47:34;;;;;;;6.90;3.97;;;;;;;26.55;100.00;101327.13;5417841;26;20007;-69
2024/04/11 09:50:04;;;;;;;8.10;4.60;;;;;;;26.56;100.00;101252.28;5420605;26;20003;-68
2024/04/11 09:52:34;;;;;;;7.80;4.85;;;;;;;27.12;100.00;101295.03;5433343;26;19999;-68
2024/04/11 09:55:03;;;;;;;9.57;4.88;;;;;;;27.34;100.00;101289.88;5434831;26;20424;-69
2024/04/11 09:57:33;;;;;;;11.35;4.82;;;;;;;27.39;100.00;101193.69;5425214;26;19995;-70
2024/04/11 10:00:01;;;;;;;7.10;4.60;;;;;;;27.09;100.00;101301.34;5429258;26;19995;-70
2024/04/11 10:02:28;;;;;;;5.25;3.92;;;;;;;27.01;100.00;101285.41;5426099;26;20010;-69
2024/04/11 10:04:57;;;;;;;14.32;4.78;;;;;;;26.45;100.00;101340.94;5429069;26;20333;-71
2024/04/11 10:07:25;;;;;;;7.45;4.63;;;;;;;26.56;100.00;101218.34;5431675;26;20464;-68
2024/04/11 10:09:54;;;;;;;8.48;4.70;;;;;;;26.87;100.00;101233.41;5419280;26;19999;-69
2024/04/11 10:12:20;;;;;;;10.38;4.93;;;;;;;26.76;100.00;101310.88;5428416;26;20075;-69
2024/04/11 10:14:49;;;;;;;10.63;4.45;;;;;;;26.75;100.00;101280.47;5439393;26;20815;-69
2024/04/11 10:17:15;;;;;;;10.00;5.10;;;;;;;26.96;100.00;101224.06;5426200;26;20010;-69
2024/04/11 10:19:43;;;;;;;7.13;4.20;;;;;;;27.26;100.00;101274.75;5432139;26;19999;-69
2024/04/11 10:22:15;;;;;;;6.72;4.50;;;;;;;26.65;100.00;101264.63;5436674;26;20014;-69
2024/04/11 10:24:44;;;;;;;6.38;4.53;;;;;;;27.40;100.00;101162.19;5434743;26;20018;-70
2024/04/11 10:27:11;;;;;;;6.68;4.45;;;;;;;28.10;100.00;101235.03;5436210;26;20002;-69
2024/04/11 10:29:43;;;;;;;10.63;4.55;;;;;;;27.26;100.00;101209.44;5421941;26;20067;-69
2024/04/11 10:32:35;;;;;;;8.90;4.50;;;;;;;27.34;100.00;101195.81;5422904;26;20015;-69
2024/04/11 10:35:02;;;;;;;8.80;4.95;;;;;;;27.21;100.00;101268.22;5429568;26;19999;-69
2024/04/11 10:37:33;;;;;;;9.38;4.65;;;;;;;26.75;100.00;101244.75;5436738;26;20007;-69
2024/04/11 10:40:00;;;;;;;10.75;5.05;;;;;;;28.03;100.00;101241.69;5428556;26;19999;-69
2024/04/11 10:43:11;;;;;;;9.18;4.50;;;;;;;27.06;100.00;101301.56;5438205;26;20003;-70
2024/04/11 10:45:27;;;;;;;10.38;5.60;;;;;;;27.44;100.00;101178.47;5428647;26;20076;-68
2024/04/11 10:47:52;;;;;;;12.45;4.82;;;;;;;27.73;100.00;101254.59;5427404;26;20039;-69
2024/04/11 10:50:23;;;;;;;8.25;4.38;;;;;;;27.92;100.00;101208.53;5432861;26;20011;-69
2024/04/11 10:52:49;;;;;;;10.10;5.00;;;;;;;28.28;100.00;101189.06;5421797;26;20356;-69
2024/04/11 10:55:28;;;;;;;7.00;4.72;;;;;;;27.51;100.00;101176.19;5437725;26;20011;-69
2024/04/11 11:03:46;;;;;;;9.45;4.78;;;;;;;27.48;100.00;101242.59;5425651;26;19999;-71
2024/04/11 11:06:24;;;;;;;7.35;4.60;;;;;;;26.88;100.00;101210.75;5432753;26;20113;-68
2024/04/11 11:08:54;;;;;;;8.82;4.72;;;;;;;27.08;100.00;101275.31;5430664;26;20003;-68
2024/04/11 11:11:21;;;;;;;8.48;4.90;;;;;;;27.55;99.05;101229.91;5427696;26;20014;-68
2024/04/11 11:13:47;;;;;;;9.57;5.20;;;;;;;28.28;99.77;101199.53;5436924;26;20014;-68
2024/04/11 11:16:21;;;;;;;10.02;4.72;;;;;;;27.17;98.18;101287.69;5426919;26;19999;-69
2024/04/11 11:18:52;;;;;;;9.57;5.05;;;;;;;27.85;100.00;101196.91;5427414;26;20003;-68
2024/04/11 11:21:22;;;;;;;9.57;5.10;;;;;;;27.68;98.87;101252.34;5432912;26;20016;-69